createdAt,value
2018-12-16T00:00:19.182Z,16
2018-12-16T00:02:18.822Z,18.1
2018-12-16T00:04:18.424Z,18.1
2018-12-16T00:06:18.684Z,18
2018-12-16T00:08:19.329Z,19.7
2018-12-16T00:10:19.477Z,19.1
2018-12-16T00:12:19.100Z,15.8
2018-12-16T00:14:18.738Z,19.9
2018-12-16T00:16:18.520Z,18.4
2018-12-16T00:18:19.231Z,16.7
2018-12-16T00:20:18.903Z,18.3
2018-12-16T00:22:18.554Z,16.8
2018-12-16T00:24:19.171Z,16.3
2018-12-16T00:26:18.924Z,18.8
2018-12-16T00:28:18.551Z,19
2018-12-16T00:30:19.176Z,19.4
2018-12-16T00:32:18.795Z,18.6
2018-12-16T00:34:19.424Z,18.1
2018-12-16T00:36:18.687Z,18.2
2018-12-16T00:38:19.303Z,17.9
2018-12-16T00:40:19.420Z,15.8
2018-12-16T00:42:19.023Z,19.4
2018-12-16T00:44:18.634Z,17.3
2018-12-16T00:46:18.430Z,17.8
2018-12-16T00:48:19.064Z,17.2
2018-12-16T00:50:18.759Z,18.2
2018-12-16T00:52:19.428Z,18.3
2018-12-16T00:54:19.126Z,17.6
2018-12-16T00:56:19.346Z,18.8
2018-12-16T00:58:18.961Z,18.4
2018-12-16T01:00:18.613Z,16.9
2018-12-16T01:02:19.236Z,17.9
2018-12-16T01:04:18.860Z,17.4
2018-12-16T01:06:19.140Z,17.9
2018-12-16T01:08:18.796Z,17
2018-12-16T01:10:18.962Z,18.2
2018-12-16T01:12:18.587Z,16.4
2018-12-16T01:14:19.235Z,19.6
2018-12-16T01:16:18.493Z,17.6
2018-12-16T01:18:19.192Z,17.6
2018-12-16T01:20:18.824Z,19.8
2018-12-16T01:22:18.454Z,19.8
2018-12-16T01:24:19.105Z,16.9
2018-12-16T01:26:19.392Z,19
2018-12-16T01:28:19.035Z,18.8
2018-12-16T01:30:18.830Z,18.7
2018-12-16T01:32:18.463Z,16.4
2018-12-16T01:34:19.070Z,16.5
2018-12-16T01:36:18.442Z,15.9
2018-12-16T01:38:19.045Z,18.7
2018-12-16T01:40:19.195Z,18.2
2018-12-16T01:42:18.826Z,18.7
2018-12-16T01:44:18.451Z,17.2
2018-12-16T01:46:18.686Z,18.3
2018-12-16T01:48:19.304Z,17.4
2018-12-16T01:50:18.953Z,20.8
2018-12-16T01:52:18.574Z,16.2
2018-12-16T01:54:19.193Z,18.5
2018-12-16T01:56:19.406Z,19.2
2018-12-16T01:58:19.010Z,18.4
2018-12-16T02:00:18.687Z,18.8
2018-12-16T02:02:19.299Z,18.2
2018-12-16T02:04:18.947Z,19.2
2018-12-16T02:06:18.743Z,17.7
2018-12-16T02:08:19.373Z,17.3
2018-12-16T02:10:18.525Z,17.5
2018-12-16T02:12:19.179Z,17.9
2018-12-16T02:14:18.784Z,18.5
2018-12-16T02:16:19.014Z,20.2
2018-12-16T02:18:18.738Z,17.4
2018-12-16T02:20:19.357Z,18.8
2018-12-16T02:22:18.976Z,18.7
2018-12-16T02:24:18.587Z,20.6
2018-12-16T02:26:19.390Z,18
2018-12-16T02:28:19.029Z,16.8
2018-12-16T02:30:18.669Z,17
2018-12-16T02:32:19.286Z,16.8
2018-12-16T02:34:18.916Z,17.8
2018-12-16T02:36:19.203Z,16.3
2018-12-16T02:38:18.811Z,16.6
2018-12-16T02:40:18.918Z,15.9
2018-12-16T02:42:18.560Z,17
2018-12-16T02:44:19.186Z,18
2018-12-16T02:46:19.003Z,18.8
2018-12-16T02:48:18.614Z,18
2018-12-16T02:50:19.272Z,20.5
2018-12-16T02:52:18.889Z,17.5
2018-12-16T02:54:18.501Z,19.2
2018-12-16T02:56:19.237Z,17.5
2018-12-16T02:58:18.873Z,18.1
2018-12-16T03:00:18.585Z,14.6
2018-12-16T03:02:19.218Z,15.7
2018-12-16T03:04:18.849Z,17.2
2018-12-16T03:06:19.097Z,17.6
2018-12-16T03:08:18.714Z,18.4
2018-12-16T03:10:18.798Z,16.2
2018-12-16T03:12:18.432Z,17.3
2018-12-16T03:14:19.122Z,18.4
2018-12-16T03:16:18.900Z,18.6
2018-12-16T03:18:18.587Z,16.4
2018-12-16T03:20:19.235Z,16.9
2018-12-16T03:22:18.867Z,17.1
2018-12-16T03:24:18.525Z,18.4
2018-12-16T03:26:18.779Z,16.1
2018-12-16T03:28:19.415Z,15.6
2018-12-16T03:30:19.113Z,14.7
2018-12-16T03:32:18.767Z,14.1
2018-12-16T03:34:18.438Z,14.2
2018-12-16T03:36:19.188Z,16.2
2018-12-16T03:38:18.798Z,14.1
2018-12-16T03:40:18.857Z,14.2
2018-12-16T03:42:18.489Z,12.1
2018-12-16T03:44:19.116Z,14
2018-12-16T03:46:18.470Z,12
2018-12-16T03:48:19.096Z,12.4
2018-12-16T03:50:18.842Z,10.7
2018-12-16T03:52:18.460Z,12.5
2018-12-16T03:54:19.075Z,12.1
2018-12-16T03:56:18.836Z,11.5
2018-12-16T03:58:18.447Z,12.6
2018-12-16T04:00:19.106Z,14.4
2018-12-16T04:02:18.743Z,12.8
2018-12-16T04:04:19.350Z,12.8
2018-12-16T04:06:18.619Z,13.7
2018-12-16T04:08:19.221Z,14.8
2018-12-16T04:10:19.300Z,14
2018-12-16T04:12:18.924Z,13.9
2018-12-16T04:14:18.536Z,11.9
2018-12-16T04:16:18.756Z,12.9
2018-12-16T04:18:18.470Z,13.2
2018-12-16T04:20:19.117Z,12.4
2018-12-16T04:22:18.741Z,12.3
2018-12-16T04:24:19.348Z,12.4
2018-12-16T04:26:19.133Z,10.8
2018-12-16T04:28:18.758Z,11.3
2018-12-16T04:30:19.395Z,10.7
2018-12-16T04:32:19.021Z,12.3
2018-12-16T04:34:18.677Z,12.5
2018-12-16T04:36:19.017Z,12.9
2018-12-16T04:38:18.640Z,11.7
2018-12-16T04:40:18.749Z,10.5
2018-12-16T04:42:19.375Z,11.7
2018-12-16T04:44:18.982Z,11.4
2018-12-16T04:46:19.189Z,10
2018-12-16T04:48:18.819Z,12.1
2018-12-16T04:50:18.440Z,12.1
2018-12-16T04:52:19.078Z,10.2
2018-12-16T04:54:18.684Z,11.2
2018-12-16T04:56:18.935Z,9.7
2018-12-16T04:58:18.546Z,10.5
2018-12-16T05:00:19.170Z,10.7
2018-12-16T05:02:18.776Z,10.1
2018-12-16T05:04:19.394Z,10.1
2018-12-16T05:06:19.669Z,9.8
2018-12-16T05:08:19.404Z,9.9
2018-12-16T05:10:18.506Z,8.4
2018-12-16T05:12:19.106Z,9.4
2018-12-16T05:14:18.735Z,9.1
2018-12-16T05:16:18.926Z,9.6
2018-12-16T05:18:18.611Z,9.9
2018-12-16T05:20:19.216Z,10.1
2018-12-16T05:22:18.840Z,9
2018-12-16T05:24:18.447Z,8.1
2018-12-16T05:26:18.734Z,8.9
2018-12-16T05:28:19.355Z,8.6
2018-12-16T05:30:19.005Z,8.8
2018-12-16T05:32:18.596Z,9.8
2018-12-16T05:34:19.209Z,9.4
2018-12-16T05:36:18.461Z,8.5
2018-12-16T05:38:19.078Z,9.8
2018-12-16T05:40:19.283Z,8.5
2018-12-16T05:42:18.909Z,9.3
2018-12-16T05:44:18.538Z,10.1
2018-12-16T05:46:19.304Z,8.6
2018-12-16T05:48:18.919Z,9.3
2018-12-16T05:50:18.542Z,9
2018-12-16T05:52:19.166Z,7.8
2018-12-16T05:54:18.774Z,8.9
2018-12-16T05:56:18.472Z,10.2
2018-12-16T05:58:19.083Z,8.7
2018-12-16T06:00:18.833Z,9.7
2018-12-16T06:02:18.424Z,9.3
2018-12-16T06:04:19.022Z,10.1
2018-12-16T06:06:19.326Z,8.9
2018-12-16T06:08:18.968Z,9
2018-12-16T06:10:19.190Z,9.5
2018-12-16T06:12:18.801Z,10.4
2018-12-16T06:14:18.441Z,10.1
2018-12-16T06:16:19.191Z,9.4
2018-12-16T06:18:18.899Z,10.1
2018-12-16T06:20:18.530Z,11.2
2018-12-16T06:22:19.147Z,10.4
2018-12-16T06:24:18.765Z,9.3
2018-12-16T06:26:18.619Z,10.2
2018-12-16T06:28:19.232Z,11
2018-12-16T06:30:18.873Z,10.3
2018-12-16T06:32:18.470Z,9.7
2018-12-16T06:34:19.094Z,10.7
2018-12-16T06:36:19.331Z,9.1
2018-12-16T06:38:18.957Z,9.5
2018-12-16T06:40:19.079Z,9.8
2018-12-16T06:42:18.678Z,11.1
2018-12-16T06:44:19.308Z,10.1
2018-12-16T06:46:19.105Z,9.1
2018-12-16T06:48:19.005Z,8.8
2018-12-16T06:50:18.667Z,10.1
2018-12-16T06:52:19.288Z,11.1
2018-12-16T06:54:18.916Z,10.9
2018-12-16T06:56:18.723Z,10.5
2018-12-16T06:58:19.321Z,11.1
2018-12-16T07:00:18.952Z,11.5
2018-12-16T07:02:18.597Z,11
2018-12-16T07:04:19.211Z,11
2018-12-16T07:06:18.512Z,10.2
2018-12-16T07:08:19.123Z,9.5
2018-12-16T07:10:19.280Z,9.4
2018-12-16T07:12:18.940Z,9.1
2018-12-16T07:14:18.581Z,9.7
2018-12-16T07:16:18.827Z,9.7
2018-12-16T07:18:18.548Z,9
2018-12-16T07:20:19.234Z,9.5
2018-12-16T07:22:18.896Z,9.2
2018-12-16T07:24:18.524Z,7.5
2018-12-16T07:26:18.833Z,8.8
2018-12-16T07:28:18.502Z,8.2
2018-12-16T07:30:19.216Z,9.1
2018-12-16T07:32:18.835Z,9
2018-12-16T07:34:18.468Z,9.6
2018-12-16T07:36:19.281Z,8.8
2018-12-16T07:38:18.933Z,8.2
2018-12-16T07:40:19.077Z,10
2018-12-16T07:42:18.752Z,8.6
2018-12-16T07:44:19.403Z,9.2
2018-12-16T07:46:18.729Z,9.6
2018-12-16T07:48:19.392Z,8.5
2018-12-16T07:50:19.040Z,8.3
2018-12-16T07:52:18.745Z,9.2
2018-12-16T07:54:19.407Z,7.6
2018-12-16T07:56:19.314Z,9.5
2018-12-16T07:58:18.944Z,7
2018-12-16T08:00:18.575Z,8.3
2018-12-16T08:02:19.233Z,8.6
2018-12-16T08:04:18.858Z,8.2
2018-12-16T08:06:19.132Z,8.8
2018-12-16T08:08:18.764Z,6.8
2018-12-16T08:10:18.869Z,8
2018-12-16T08:12:18.470Z,9.4
2018-12-16T08:14:19.084Z,8.1
2018-12-16T08:16:18.890Z,8.8
2018-12-16T08:18:18.578Z,8.5
2018-12-16T08:20:19.218Z,9.3
2018-12-16T08:22:18.837Z,7.2
2018-12-16T08:24:23.024Z,8.7
2018-12-16T08:26:18.653Z,9.4
2018-12-16T08:28:19.301Z,8.2
2018-12-16T08:30:18.917Z,10.2
2018-12-16T08:32:18.537Z,7.3
2018-12-16T08:34:19.185Z,9.5
2018-12-16T08:36:18.974Z,9
2018-12-16T08:38:18.597Z,8.3
2018-12-16T08:40:18.711Z,9
2018-12-16T08:42:19.308Z,8
2018-12-16T08:44:18.903Z,8.6
2018-12-16T08:46:19.159Z,7.9
2018-12-16T08:48:18.772Z,9.2
2018-12-16T08:50:19.404Z,8.3
2018-12-16T08:52:18.990Z,9.2
2018-12-16T08:54:18.595Z,8.8
2018-12-16T08:56:19.300Z,9.2
2018-12-16T08:58:18.927Z,9.2
2018-12-16T09:00:18.658Z,9.6
2018-12-16T09:02:19.285Z,8
2018-12-16T09:04:18.895Z,8
2018-12-16T09:06:18.731Z,8.6
2018-12-16T09:08:19.356Z,7.9
2018-12-16T09:10:18.455Z,7.4
2018-12-16T09:12:19.480Z,8.6
2018-12-16T09:14:19.188Z,9.4
2018-12-16T09:16:19.410Z,8.4
2018-12-16T09:18:19.111Z,8.4
2018-12-16T09:20:18.726Z,8.5
2018-12-16T09:22:19.338Z,7.9
2018-12-16T09:24:18.952Z,8.6
2018-12-16T09:26:18.729Z,8.2
2018-12-16T09:28:19.354Z,7.1
2018-12-16T09:30:18.995Z,7.2
2018-12-16T09:32:18.629Z,7.1
2018-12-16T09:34:19.289Z,7.5
2018-12-16T09:36:18.587Z,7.6
2018-12-16T09:38:19.201Z,8.3
2018-12-16T09:40:19.272Z,9.2
2018-12-16T09:42:18.915Z,7.9
2018-12-16T09:44:18.540Z,8.2
2018-12-16T09:46:18.802Z,8.7
2018-12-16T09:48:18.417Z,7.2
2018-12-16T09:50:19.061Z,6.6
2018-12-16T09:52:18.678Z,6.9
2018-12-16T09:54:19.293Z,7.5
2018-12-16T09:56:18.569Z,6.8
2018-12-16T09:58:19.171Z,6.7
2018-12-16T10:00:18.800Z,8.1
2018-12-16T10:02:18.533Z,7.9
2018-12-16T10:04:19.137Z,8.8
2018-12-16T10:06:18.434Z,7.4
2018-12-16T10:08:19.035Z,7
2018-12-16T10:10:19.280Z,7
2018-12-16T10:12:18.888Z,7.8
2018-12-16T10:14:18.506Z,8.4
2018-12-16T10:16:19.221Z,7.8
2018-12-16T10:18:18.889Z,7.4
2018-12-16T10:20:18.548Z,6.1
2018-12-16T10:22:19.176Z,7.3
2018-12-16T10:24:18.798Z,7.1
2018-12-16T10:26:19.078Z,6.8
2018-12-16T10:28:18.694Z,8
2018-12-16T10:30:19.435Z,7.7
2018-12-16T10:32:19.043Z,6.5
2018-12-16T10:34:18.671Z,6.8
2018-12-16T10:36:18.462Z,6.6
2018-12-16T10:38:19.086Z,7.4
2018-12-16T10:40:19.173Z,6.8
2018-12-16T10:42:18.789Z,7.4
2018-12-16T10:44:19.394Z,6.2
2018-12-16T10:46:19.172Z,7.3
2018-12-16T10:48:18.799Z,7.4
2018-12-16T10:50:19.440Z,7.2
2018-12-16T10:52:19.064Z,8.1
2018-12-16T10:54:18.682Z,7.3
2018-12-16T10:56:18.432Z,7.3
2018-12-16T10:58:19.041Z,7.6
2018-12-16T11:00:18.656Z,7.1
2018-12-16T11:02:19.273Z,7.3
2018-12-16T11:04:18.900Z,6.8
2018-12-16T11:06:18.661Z,6.9
2018-12-16T11:08:19.283Z,7
2018-12-16T11:10:19.400Z,6.6
2018-12-16T11:12:19.041Z,6.4
2018-12-16T11:14:18.674Z,7
2018-12-16T11:16:19.125Z,7.6
2018-12-16T11:18:18.821Z,7
2018-12-16T11:20:18.582Z,6.8
2018-12-16T11:22:19.207Z,7.1
2018-12-16T11:24:18.845Z,6.4
2018-12-16T11:26:18.773Z,6.4
2018-12-16T11:28:19.380Z,5.4
2018-12-16T11:30:18.994Z,6.1
2018-12-16T11:32:18.608Z,6
2018-12-16T11:34:19.240Z,8.5
2018-12-16T11:36:18.665Z,6.9
2018-12-16T11:38:19.288Z,7.2
2018-12-16T11:40:19.360Z,6.8
2018-12-16T11:42:18.995Z,7.7
2018-12-16T11:44:18.625Z,6
2018-12-16T11:46:18.424Z,6.2
2018-12-16T11:48:19.050Z,6.3
2018-12-16T11:50:18.687Z,6.5
2018-12-16T11:52:19.317Z,5.5
2018-12-16T11:54:18.920Z,5.3
2018-12-16T11:56:18.688Z,6.1
2018-12-16T11:58:19.298Z,7
2018-12-16T12:00:18.952Z,6.2
2018-12-16T12:02:18.582Z,6.5
2018-12-16T12:04:19.181Z,5.7
2018-12-16T12:06:18.932Z,5.8
2018-12-16T12:08:18.539Z,5.9
2018-12-16T12:10:18.630Z,5.7
2018-12-16T12:12:19.264Z,6.6
2018-12-16T12:14:18.906Z,5.9
2018-12-16T12:16:19.113Z,5.2
2018-12-16T12:18:18.786Z,6.1
2018-12-16T12:20:19.416Z,6
2018-12-16T12:22:19.051Z,5
2018-12-16T12:24:18.670Z,4.9
2018-12-16T12:26:18.463Z,5.2
2018-12-16T12:28:19.111Z,6.1
2018-12-16T12:30:18.780Z,6.1
2018-12-16T12:32:19.422Z,5.3
2018-12-16T12:34:19.065Z,5.7
2018-12-16T12:36:18.824Z,5.3
2018-12-16T12:38:18.438Z,5.3
2018-12-16T12:40:18.502Z,6.3
2018-12-16T12:42:19.137Z,5.2
2018-12-16T12:44:18.745Z,5.6
2018-12-16T12:46:18.659Z,5.1
2018-12-16T12:48:19.277Z,5.7
2018-12-16T12:50:19.039Z,5.2
2018-12-16T12:52:18.649Z,5.4
2018-12-16T12:54:19.269Z,5.4
2018-12-16T12:56:18.514Z,5.9
2018-12-16T12:58:19.131Z,6.3
2018-12-16T13:00:18.763Z,5
2018-12-16T13:02:19.384Z,4.9
2018-12-16T13:04:19.066Z,5.2
2018-12-16T13:06:19.325Z,5.8
2018-12-16T13:08:18.928Z,5.4
2018-12-16T13:10:19.001Z,5.3
2018-12-16T13:12:18.630Z,6.1
2018-12-16T13:14:19.262Z,5.8
2018-12-16T13:16:19.033Z,4.9
2018-12-16T13:18:18.703Z,5.6
2018-12-16T13:20:19.329Z,5.7
2018-12-16T13:22:18.951Z,6.5
2018-12-16T13:24:18.570Z,6.6
2018-12-16T13:26:18.792Z,5.7
2018-12-16T13:28:19.441Z,6.8
2018-12-16T13:30:19.072Z,5.6
2018-12-16T13:32:18.715Z,5.8
2018-12-16T13:34:19.344Z,5.6
2018-12-16T13:36:18.556Z,6
2018-12-16T13:38:19.193Z,6.1
2018-12-16T13:40:19.244Z,5.7
2018-12-16T13:42:18.859Z,5.7
2018-12-16T13:44:18.489Z,5.4
2018-12-16T13:46:18.736Z,6.7
2018-12-16T13:48:19.362Z,5.7
2018-12-16T13:50:19.069Z,5.3
2018-12-16T13:52:18.676Z,5.1
2018-12-16T13:54:19.292Z,7.5
2018-12-16T13:56:18.568Z,6.2
2018-12-16T13:58:19.186Z,7.4
2018-12-16T14:00:18.812Z,6.1
2018-12-16T14:02:18.461Z,6.1
2018-12-16T14:04:19.054Z,5.4
2018-12-16T14:06:18.814Z,5.7
2018-12-16T14:08:18.450Z,6.9
2018-12-16T14:10:18.550Z,5.5
2018-12-16T14:12:19.179Z,6.1
2018-12-16T14:14:18.810Z,5.2
2018-12-16T14:16:18.552Z,6.4
2018-12-16T14:18:19.288Z,5.8
2018-12-16T14:20:18.934Z,6.2
2018-12-16T14:22:18.590Z,5.9
2018-12-16T14:24:19.198Z,5.1
2018-12-16T14:26:18.428Z,6.2
2018-12-16T14:28:19.052Z,6.1
2018-12-16T14:30:18.695Z,6.3
2018-12-16T14:32:19.292Z,6.2
2018-12-16T14:34:18.917Z,6.5
2018-12-16T14:36:18.721Z,6
2018-12-16T14:38:19.334Z,6.4
2018-12-16T14:40:19.431Z,6.3
2018-12-16T14:42:19.043Z,6.1
2018-12-16T14:44:18.693Z,5.2
2018-12-16T14:46:18.901Z,6
2018-12-16T14:48:18.498Z,7
2018-12-16T14:50:19.120Z,6.6
2018-12-16T14:52:18.746Z,7.4
2018-12-16T14:54:19.365Z,7.3
2018-12-16T14:56:18.930Z,6.5
2018-12-16T14:58:18.562Z,5.6
2018-12-16T15:00:19.225Z,6.4
2018-12-16T15:02:18.842Z,6.4
2018-12-16T15:04:18.451Z,7.6
2018-12-16T15:06:18.994Z,8.2
2018-12-16T15:08:18.634Z,6.2
2018-12-16T15:10:18.728Z,7.6
2018-12-16T15:12:19.353Z,6.9
2018-12-16T15:14:18.956Z,5.6
2018-12-16T15:16:18.474Z,7.1
2018-12-16T15:18:19.174Z,7
2018-12-16T15:20:18.784Z,7.6
2018-12-16T15:22:19.423Z,7.6
2018-12-16T15:24:19.040Z,7.4
2018-12-16T15:26:19.254Z,7.9
2018-12-16T15:28:18.862Z,7.8
2018-12-16T15:30:18.481Z,7.5
2018-12-16T15:32:19.112Z,7
2018-12-16T15:34:18.751Z,8.4
2018-12-16T15:36:18.987Z,7.8
2018-12-16T15:38:18.612Z,6.5
2018-12-16T15:40:18.680Z,7.2
2018-12-16T15:42:19.296Z,7.1
2018-12-16T15:44:18.922Z,7.7
2018-12-16T15:46:18.673Z,6.6
2018-12-16T15:48:19.270Z,7.6
2018-12-16T15:50:18.889Z,7.5
2018-12-16T15:52:18.511Z,7.9
2018-12-16T15:54:19.125Z,9.8
2018-12-16T15:56:19.361Z,7.6
2018-12-16T15:58:18.989Z,7.8
2018-12-16T16:00:18.685Z,7.8
2018-12-16T16:02:19.291Z,8.3
2018-12-16T16:04:18.888Z,8.3
2018-12-16T16:06:19.145Z,8
2018-12-16T16:08:18.770Z,7.9
2018-12-16T16:10:18.871Z,7.3
2018-12-16T16:12:18.489Z,7.9
2018-12-16T16:14:19.096Z,7
2018-12-16T16:16:18.900Z,7.8
2018-12-16T16:18:18.584Z,7.5
2018-12-16T16:20:19.281Z,8.3
2018-12-16T16:22:18.902Z,7.6
2018-12-16T16:24:18.546Z,8.7
2018-12-16T16:26:19.325Z,8.2
2018-12-16T16:28:18.945Z,7.5
2018-12-16T16:30:18.571Z,7.6
2018-12-16T16:32:19.184Z,6.8
2018-12-16T16:34:18.810Z,8.3
2018-12-16T16:36:19.092Z,8.3
2018-12-16T16:38:18.715Z,7.6
2018-12-16T16:40:18.884Z,7.9
2018-12-16T16:42:18.486Z,9.5
2018-12-16T16:44:19.120Z,9.1
2018-12-16T16:46:19.356Z,10.5
2018-12-16T16:48:18.951Z,9.4
2018-12-16T16:50:18.590Z,8.6
2018-12-16T16:52:18.920Z,8.9
2018-12-16T16:54:18.526Z,8.1
2018-12-16T16:56:22.959Z,7.9
2018-12-16T16:58:18.700Z,8
2018-12-16T17:00:19.324Z,7.9
2018-12-16T17:02:18.941Z,8.1
2018-12-16T17:04:18.535Z,8.3
2018-12-16T17:06:18.843Z,8.1
2018-12-16T17:08:18.469Z,8.5
2018-12-16T17:10:18.556Z,8.2
2018-12-16T17:12:19.233Z,7.9
2018-12-16T17:14:18.843Z,8.1
2018-12-16T17:16:19.045Z,8
2018-12-16T17:18:18.733Z,8
2018-12-16T17:20:19.420Z,8.5
2018-12-16T17:22:19.068Z,8.1
2018-12-16T17:24:18.695Z,7.2
2018-12-16T17:26:18.915Z,7
2018-12-16T17:28:18.557Z,7.8
2018-12-16T17:30:19.183Z,7.4
2018-12-16T17:32:18.784Z,8
2018-12-16T17:34:19.401Z,8
2018-12-16T17:36:19.149Z,6.3
2018-12-16T17:38:18.782Z,7.9
2018-12-16T17:40:18.860Z,6.7
2018-12-16T17:42:18.455Z,7.2
2018-12-16T17:44:19.078Z,7.3
2018-12-16T17:46:18.810Z,7.6
2018-12-16T17:48:18.430Z,7.6
2018-12-16T17:50:19.079Z,8.1
2018-12-16T17:52:18.712Z,5.9
2018-12-16T17:54:19.340Z,8.7
2018-12-16T17:56:18.597Z,7.3
2018-12-16T17:58:19.221Z,8.3
2018-12-16T18:00:18.872Z,7.8
2018-12-16T18:02:18.500Z,9.7
2018-12-16T18:04:19.147Z,8.9
2018-12-16T18:06:18.972Z,8
2018-12-16T18:08:18.605Z,8.3
2018-12-16T18:10:18.642Z,7.5
2018-12-16T18:12:19.273Z,9.4
2018-12-16T18:14:18.874Z,8.5
2018-12-16T18:16:19.142Z,8.7
2018-12-16T18:18:18.843Z,8.2
2018-12-16T18:20:18.481Z,8
2018-12-16T18:22:19.113Z,7.4
2018-12-16T18:24:18.741Z,8.6
2018-12-16T18:26:18.474Z,7.1
2018-12-16T18:28:19.093Z,6.9
2018-12-16T18:30:18.685Z,7.5
2018-12-16T18:32:19.300Z,9
2018-12-16T18:34:18.919Z,7.6
2018-12-16T18:36:19.269Z,7.8
2018-12-16T18:38:18.875Z,8.1
2018-12-16T18:40:18.965Z,8.5
2018-12-16T18:42:18.584Z,8.5
2018-12-16T18:44:19.183Z,7.7
2018-12-16T18:46:19.417Z,8.4
2018-12-16T18:48:19.036Z,7.8
2018-12-16T18:50:18.691Z,7.3
2018-12-16T18:52:19.348Z,8.5
2018-12-16T18:54:18.956Z,8
2018-12-16T18:56:18.418Z,7.9
2018-12-16T18:58:19.062Z,7.2
2018-12-16T19:00:18.676Z,7.3
2018-12-16T19:02:19.306Z,6.9
2018-12-16T19:04:18.928Z,7.6
2018-12-16T19:06:18.669Z,8.4
2018-12-16T19:08:19.288Z,8.2
2018-12-16T19:10:19.349Z,7.7
2018-12-16T19:12:18.967Z,7.6
2018-12-16T19:14:18.611Z,8.5
2018-12-16T19:16:18.857Z,8
2018-12-16T19:18:18.559Z,8.2
2018-12-16T19:20:19.267Z,8.9
2018-12-16T19:22:19.122Z,7.6
2018-12-16T19:24:18.761Z,8.8
2018-12-16T19:26:19.417Z,7.6
2018-12-16T19:28:19.020Z,7.7
2018-12-16T19:30:18.647Z,6.8
2018-12-16T19:32:19.289Z,7.9
2018-12-16T19:34:18.922Z,8.4
2018-12-16T19:36:19.314Z,7.8
2018-12-16T19:38:18.917Z,8.7
2018-12-16T19:40:19.152Z,7.9
2018-12-16T19:42:18.779Z,8.9
2018-12-16T19:44:19.402Z,7.8
2018-12-16T19:46:18.696Z,7.6
2018-12-16T19:48:19.316Z,8.9
2018-12-16T19:50:18.979Z,8.5
2018-12-16T19:52:18.639Z,8.6
2018-12-16T19:54:19.304Z,6.8
2018-12-16T19:56:19.158Z,7.4
2018-12-16T19:58:18.778Z,8.6
2018-12-16T20:00:19.420Z,8
2018-12-16T20:02:19.064Z,8.6
2018-12-16T20:04:18.681Z,8.3
2018-12-16T20:06:18.912Z,8.4
2018-12-16T20:08:18.542Z,8.9
2018-12-16T20:10:18.683Z,8.6
2018-12-16T20:12:19.302Z,9.4
2018-12-16T20:14:18.921Z,8.6
2018-12-16T20:16:19.140Z,8.8
2018-12-16T20:18:18.830Z,8.9
2018-12-16T20:20:18.477Z,8.7
2018-12-16T20:22:19.116Z,8.9
2018-12-16T20:24:18.743Z,9.7
2018-12-16T20:26:18.468Z,8.3
2018-12-16T20:28:19.093Z,8.7
2018-12-16T20:30:18.747Z,9
2018-12-16T20:32:19.351Z,8.5
2018-12-16T20:34:18.961Z,8.9
2018-12-16T20:36:19.211Z,9.5
2018-12-16T20:38:18.840Z,10.4
2018-12-16T20:40:18.969Z,9.4
2018-12-16T20:42:18.594Z,9.4
2018-12-16T20:44:19.238Z,9.5
2018-12-16T20:46:18.452Z,9.3
2018-12-16T20:48:19.064Z,8.6
2018-12-16T20:50:18.703Z,9
2018-12-16T20:52:19.341Z,8.4
2018-12-16T20:54:19.060Z,9.7
2018-12-16T20:56:19.284Z,10.8
2018-12-16T20:58:18.890Z,9.3
2018-12-16T21:00:18.538Z,10.2
2018-12-16T21:02:19.152Z,9.5
2018-12-16T21:04:18.776Z,9.8
2018-12-16T21:06:18.529Z,10
2018-12-16T21:08:19.152Z,8.2
2018-12-16T21:10:19.211Z,8.5
2018-12-16T21:12:18.818Z,9.1
2018-12-16T21:14:18.465Z,9.1
2018-12-16T21:16:19.234Z,9.1
2018-12-16T21:18:18.955Z,9.3
2018-12-16T21:20:18.589Z,9.2
2018-12-16T21:22:19.197Z,9.9
2018-12-16T21:24:18.839Z,9.6
2018-12-16T21:26:19.224Z,9.1
2018-12-16T21:28:18.819Z,9.9
2018-12-16T21:30:18.467Z,9.3
2018-12-16T21:32:19.078Z,9.6
2018-12-16T21:34:18.708Z,9.7
2018-12-16T21:36:18.479Z,9.6
2018-12-16T21:38:19.104Z,11
2018-12-16T21:40:19.177Z,9.3
2018-12-16T21:42:18.834Z,9.2
2018-12-16T21:44:18.457Z,11.3
2018-12-16T21:46:18.731Z,10.7
2018-12-16T21:48:19.376Z,9.7
2018-12-16T21:50:19.032Z,9.6
2018-12-16T21:52:18.667Z,9.7
2018-12-16T21:54:19.320Z,10.7
2018-12-16T21:56:18.591Z,10
2018-12-16T21:58:19.252Z,10.2
2018-12-16T22:00:18.894Z,9.3
2018-12-16T22:02:18.508Z,10.8
2018-12-16T22:04:19.134Z,10.3
2018-12-16T22:06:18.911Z,11.9
2018-12-16T22:08:18.547Z,9.9
2018-12-16T22:10:18.672Z,10.5
2018-12-16T22:12:19.291Z,9.7
2018-12-16T22:14:18.944Z,10.1
2018-12-16T22:16:18.832Z,9.7
2018-12-16T22:18:18.521Z,8.5
2018-12-16T22:20:19.192Z,10.2
2018-12-16T22:22:18.814Z,11.5
2018-12-16T22:24:18.449Z,10.2
2018-12-16T22:26:18.978Z,10.2
2018-12-16T22:28:18.601Z,9.7
2018-12-16T22:30:19.224Z,10.5
2018-12-16T22:32:18.853Z,9.5
2018-12-16T22:34:18.499Z,9.7
2018-12-16T22:36:18.613Z,11.6
2018-12-16T22:38:19.222Z,10.6
2018-12-16T22:40:19.277Z,9.8
2018-12-16T22:42:18.876Z,10.3
2018-12-16T22:44:18.490Z,10.9
2018-12-16T22:46:18.611Z,10.9
2018-12-16T22:48:19.221Z,10
2018-12-16T22:50:18.868Z,10.3
2018-12-16T22:52:18.486Z,10.8
2018-12-16T22:54:19.083Z,10.8
2018-12-16T22:56:18.474Z,10.2
2018-12-16T22:58:19.119Z,10.6
2018-12-16T23:00:18.778Z,8.7
2018-12-16T23:02:19.407Z,9.7
2018-12-16T23:04:19.046Z,11.4
2018-12-16T23:06:19.114Z,11.5
2018-12-16T23:08:18.713Z,10.3
2018-12-16T23:10:18.850Z,10.3
2018-12-16T23:12:18.474Z,10.7
2018-12-16T23:14:19.095Z,10.6
2018-12-16T23:16:18.893Z,12.4
2018-12-16T23:18:18.598Z,10.6
2018-12-16T23:20:19.234Z,10.5
2018-12-16T23:22:18.858Z,10.5
2018-12-16T23:24:18.470Z,10.3
2018-12-16T23:26:19.318Z,10.6
2018-12-16T23:28:18.984Z,9.6
2018-12-16T23:30:18.627Z,9.5
2018-12-16T23:32:19.253Z,10.9
2018-12-16T23:34:18.880Z,10.6
2018-12-16T23:36:19.087Z,11.1
2018-12-16T23:38:18.697Z,10.8
2018-12-16T23:40:18.814Z,11.1
2018-12-16T23:42:18.428Z,10.6
2018-12-16T23:44:19.051Z,11.9
2018-12-16T23:46:18.925Z,9.8
2018-12-16T23:48:18.548Z,10
2018-12-16T23:50:19.195Z,9.8
2018-12-16T23:52:18.854Z,11
2018-12-16T23:54:18.470Z,11.2
2018-12-16T23:56:18.955Z,10.4
2018-12-16T23:58:18.611Z,11.8
